sensor_id;sensor_type;location;lat;lon;timestamp;P1;durP1;ratioP1;P2;durP2;ratioP2
8159;SDS011;27404;52.398;9.646;2023-05-25T00:00:19;20.67;;;11.43;;
8159;SDS011;27404;52.398;9.646;2023-05-25T00:02:45;27.37;;;12.10;;
8159;SDS011;27404;52.398;9.646;2023-05-25T00:05:11;21.37;;;12.60;;
8159;SDS011;27404;52.398;9.646;2023-05-25T00:07:37;24.83;;;13.83;;
8159;SDS011;27404;52.398;9.646;2023-05-25T00:10:03;24.00;;;12.50;;
8159;SDS011;27404;52.398;9.646;2023-05-25T00:12:30;28.70;;;12.30;;
8159;SDS011;27404;52.398;9.646;2023-05-25T00:14:56;20.67;;;11.13;;
8159;SDS011;27404;52.398;9.646;2023-05-25T00:17:21;22.60;;;12.27;;
8159;SDS011;27404;52.398;9.646;2023-05-25T00:19:48;31.57;;;13.07;;
8159;SDS011;27404;52.398;9.646;2023-05-25T00:22:14;21.73;;;12.23;;
8159;SDS011;27404;52.398;9.646;2023-05-25T00:24:39;24.77;;;12.73;;
8159;SDS011;27404;52.398;9.646;2023-05-25T00:27:05;24.23;;;13.00;;
8159;SDS011;27404;52.398;9.646;2023-05-25T00:29:31;25.47;;;13.13;;
8159;SDS011;27404;52.398;9.646;2023-05-25T00:31:57;21.87;;;13.47;;
8159;SDS011;27404;52.398;9.646;2023-05-25T00:34:22;24.47;;;13.23;;
8159;SDS011;27404;52.398;9.646;2023-05-25T00:36:48;31.23;;;13.90;;
8159;SDS011;27404;52.398;9.646;2023-05-25T00:39:14;30.07;;;14.37;;
8159;SDS011;27404;52.398;9.646;2023-05-25T00:41:41;25.70;;;14.13;;
8159;SDS011;27404;52.398;9.646;2023-05-25T00:44:08;25.10;;;13.13;;
8159;SDS011;27404;52.398;9.646;2023-05-25T00:46:40;28.73;;;14.00;;
8159;SDS011;27404;52.398;9.646;2023-05-25T00:49:09;27.90;;;13.30;;
8159;SDS011;27404;52.398;9.646;2023-05-25T00:51:39;29.37;;;14.10;;
8159;SDS011;27404;52.398;9.646;2023-05-25T00:54:05;24.43;;;13.83;;
8159;SDS011;27404;52.398;9.646;2023-05-25T00:56:31;26.03;;;13.13;;
8159;SDS011;27404;52.398;9.646;2023-05-25T00:59:03;26.50;;;13.73;;
8159;SDS011;27404;52.398;9.646;2023-05-25T01:01:32;24.90;;;14.77;;
8159;SDS011;27404;52.398;9.646;2023-05-25T01:04:04;27.37;;;14.17;;
8159;SDS011;27404;52.398;9.646;2023-05-25T01:06:33;27.43;;;14.13;;
8159;SDS011;27404;52.398;9.646;2023-05-25T01:09:04;30.33;;;14.57;;
8159;SDS011;27404;52.398;9.646;2023-05-25T01:11:36;28.77;;;14.90;;
8159;SDS011;27404;52.398;9.646;2023-05-25T01:14:06;27.17;;;14.70;;
8159;SDS011;27404;52.398;9.646;2023-05-25T01:16:32;28.97;;;14.60;;
8159;SDS011;27404;52.398;9.646;2023-05-25T01:18:57;22.47;;;13.63;;
8159;SDS011;27404;52.398;9.646;2023-05-25T01:21:28;26.27;;;14.23;;
8159;SDS011;27404;52.398;9.646;2023-05-25T01:29:35;28.37;;;15.20;;
8159;SDS011;27404;52.398;9.646;2023-05-25T01:32:04;25.37;;;13.23;;
8159;SDS011;27404;52.398;9.646;2023-05-25T01:34:30;22.97;;;13.23;;
8159;SDS011;27404;52.398;9.646;2023-05-25T01:36:56;33.40;;;15.00;;
8159;SDS011;27404;52.398;9.646;2023-05-25T01:39:22;29.60;;;15.07;;
8159;SDS011;27404;52.398;9.646;2023-05-25T01:41:47;25.93;;;13.77;;
8159;SDS011;27404;52.398;9.646;2023-05-25T01:44:13;25.87;;;14.73;;
8159;SDS011;27404;52.398;9.646;2023-05-25T01:46:39;22.67;;;14.00;;
8159;SDS011;27404;52.398;9.646;2023-05-25T01:51:50;30.37;;;15.53;;
8159;SDS011;27404;52.398;9.646;2023-05-25T01:54:23;26.70;;;13.63;;
8159;SDS011;27404;52.398;9.646;2023-05-25T01:56:57;24.43;;;13.47;;
8159;SDS011;27404;52.398;9.646;2023-05-25T01:59:25;30.30;;;15.13;;
8159;SDS011;27404;52.398;9.646;2023-05-25T02:01:53;25.13;;;14.30;;
8159;SDS011;27404;52.398;9.646;2023-05-25T02:04:19;26.97;;;14.07;;
8159;SDS011;27404;52.398;9.646;2023-05-25T02:06:52;25.10;;;13.13;;
8159;SDS011;27404;52.398;9.646;2023-05-25T02:09:17;24.60;;;13.63;;
8159;SDS011;27404;52.398;9.646;2023-05-25T02:11:43;23.47;;;14.57;;
8159;SDS011;27404;52.398;9.646;2023-05-25T02:14:08;26.30;;;14.37;;
8159;SDS011;27404;52.398;9.646;2023-05-25T02:16:35;24.90;;;13.60;;
8159;SDS011;27404;52.398;9.646;2023-05-25T02:19:00;28.23;;;13.80;;
8159;SDS011;27404;52.398;9.646;2023-05-25T02:21:26;26.70;;;15.10;;
8159;SDS011;27404;52.398;9.646;2023-05-25T02:23:52;30.33;;;12.83;;
8159;SDS011;27404;52.398;9.646;2023-05-25T02:26:18;25.47;;;14.47;;
8159;SDS011;27404;52.398;9.646;2023-05-25T02:28:44;25.27;;;13.67;;
8159;SDS011;27404;52.398;9.646;2023-05-25T02:31:09;26.97;;;13.93;;
8159;SDS011;27404;52.398;9.646;2023-05-25T02:33:35;28.77;;;14.30;;
8159;SDS011;27404;52.398;9.646;2023-05-25T02:36:00;27.93;;;14.30;;
8159;SDS011;27404;52.398;9.646;2023-05-25T02:38:26;28.53;;;14.47;;
8159;SDS011;27404;52.398;9.646;2023-05-25T02:40:51;25.60;;;13.97;;
8159;SDS011;27404;52.398;9.646;2023-05-25T02:43:17;24.80;;;14.10;;
8159;SDS011;27404;52.398;9.646;2023-05-25T02:45:42;26.80;;;15.40;;
8159;SDS011;27404;52.398;9.646;2023-05-25T02:48:08;25.30;;;13.47;;
8159;SDS011;27404;52.398;9.646;2023-05-25T02:50:34;22.60;;;13.60;;
8159;SDS011;27404;52.398;9.646;2023-05-25T02:52:59;25.33;;;12.80;;
8159;SDS011;27404;52.398;9.646;2023-05-25T02:55:25;24.60;;;14.17;;
8159;SDS011;27404;52.398;9.646;2023-05-25T02:57:50;23.73;;;12.53;;
8159;SDS011;27404;52.398;9.646;2023-05-25T03:00:16;23.77;;;13.50;;
8159;SDS011;27404;52.398;9.646;2023-05-25T03:02:43;28.93;;;14.93;;
8159;SDS011;27404;52.398;9.646;2023-05-25T03:05:10;25.73;;;14.13;;
8159;SDS011;27404;52.398;9.646;2023-05-25T03:07:36;25.70;;;13.17;;
8159;SDS011;27404;52.398;9.646;2023-05-25T03:10:01;28.50;;;14.83;;
8159;SDS011;27404;52.398;9.646;2023-05-25T03:12:27;31.40;;;14.23;;
8159;SDS011;27404;52.398;9.646;2023-05-25T03:14:52;29.80;;;14.47;;
8159;SDS011;27404;52.398;9.646;2023-05-25T03:17:18;26.17;;;13.57;;
8159;SDS011;27404;52.398;9.646;2023-05-25T03:19:43;27.33;;;14.37;;
8159;SDS011;27404;52.398;9.646;2023-05-25T03:22:09;28.37;;;13.27;;
8159;SDS011;27404;52.398;9.646;2023-05-25T03:24:35;26.07;;;14.27;;
8159;SDS011;27404;52.398;9.646;2023-05-25T03:27:00;26.93;;;13.43;;
8159;SDS011;27404;52.398;9.646;2023-05-25T03:29:26;25.70;;;13.30;;
8159;SDS011;27404;52.398;9.646;2023-05-25T03:31:51;25.07;;;12.70;;
8159;SDS011;27404;52.398;9.646;2023-05-25T03:34:17;24.80;;;13.97;;
8159;SDS011;27404;52.398;9.646;2023-05-25T03:36:42;27.07;;;14.30;;
8159;SDS011;27404;52.398;9.646;2023-05-25T03:39:09;22.33;;;13.53;;
8159;SDS011;27404;52.398;9.646;2023-05-25T03:41:36;22.67;;;13.73;;
8159;SDS011;27404;52.398;9.646;2023-05-25T03:44:01;25.77;;;13.40;;
8159;SDS011;27404;52.398;9.646;2023-05-25T03:46:27;28.67;;;12.80;;
8159;SDS011;27404;52.398;9.646;2023-05-25T03:48:52;28.00;;;13.97;;
8159;SDS011;27404;52.398;9.646;2023-05-25T03:51:17;28.13;;;14.37;;
8159;SDS011;27404;52.398;9.646;2023-05-25T03:53:43;25.83;;;14.30;;
8159;SDS011;27404;52.398;9.646;2023-05-25T03:56:08;22.70;;;13.57;;
8159;SDS011;27404;52.398;9.646;2023-05-25T03:58:34;24.83;;;13.53;;
8159;SDS011;27404;52.398;9.646;2023-05-25T04:00:59;25.03;;;12.87;;
8159;SDS011;27404;52.398;9.646;2023-05-25T04:03:25;27.67;;;12.73;;
8159;SDS011;27404;52.398;9.646;2023-05-25T04:05:51;23.80;;;12.97;;
8159;SDS011;27404;52.398;9.646;2023-05-25T04:08:17;23.40;;;13.83;;
8159;SDS011;27404;52.398;9.646;2023-05-25T04:10:46;26.50;;;13.93;;
8159;SDS011;27404;52.398;9.646;2023-05-25T04:13:12;25.63;;;13.37;;
8159;SDS011;27404;52.398;9.646;2023-05-25T04:15:38;29.43;;;14.03;;
8159;SDS011;27404;52.398;9.646;2023-05-25T04:18:03;27.13;;;13.70;;
8159;SDS011;27404;52.398;9.646;2023-05-25T04:20:29;26.80;;;14.73;;
8159;SDS011;27404;52.398;9.646;2023-05-25T04:22:55;27.17;;;13.73;;
8159;SDS011;27404;52.398;9.646;2023-05-25T04:25:21;29.10;;;14.17;;
8159;SDS011;27404;52.398;9.646;2023-05-25T04:27:46;28.57;;;14.23;;
8159;SDS011;27404;52.398;9.646;2023-05-25T04:30:13;26.83;;;13.53;;
8159;SDS011;27404;52.398;9.646;2023-05-25T04:32:39;26.10;;;12.83;;
8159;SDS011;27404;52.398;9.646;2023-05-25T04:35:05;19.97;;;12.80;;
8159;SDS011;27404;52.398;9.646;2023-05-25T04:37:31;24.10;;;13.30;;
8159;SDS011;27404;52.398;9.646;2023-05-25T04:39:57;26.73;;;14.43;;
8159;SDS011;27404;52.398;9.646;2023-05-25T04:42:23;20.80;;;13.00;;
8159;SDS011;27404;52.398;9.646;2023-05-25T04:44:49;19.40;;;11.80;;
8159;SDS011;27404;52.398;9.646;2023-05-25T04:47:17;22.23;;;12.93;;
8159;SDS011;27404;52.398;9.646;2023-05-25T04:49:43;23.47;;;13.17;;
8159;SDS011;27404;52.398;9.646;2023-05-25T04:52:08;25.33;;;13.83;;
8159;SDS011;27404;52.398;9.646;2023-05-25T04:54:34;26.13;;;13.57;;
8159;SDS011;27404;52.398;9.646;2023-05-25T04:57:00;25.67;;;13.93;;
8159;SDS011;27404;52.398;9.646;2023-05-25T04:59:27;25.10;;;13.33;;
8159;SDS011;27404;52.398;9.646;2023-05-25T05:01:52;24.87;;;13.47;;
8159;SDS011;27404;52.398;9.646;2023-05-25T05:04:18;25.57;;;14.57;;
8159;SDS011;27404;52.398;9.646;2023-05-25T05:06:43;22.87;;;13.27;;
8159;SDS011;27404;52.398;9.646;2023-05-25T05:09:09;23.33;;;12.97;;
8159;SDS011;27404;52.398;9.646;2023-05-25T05:11:34;24.10;;;13.83;;
8159;SDS011;27404;52.398;9.646;2023-05-25T05:13:59;25.27;;;15.73;;
8159;SDS011;27404;52.398;9.646;2023-05-25T05:16:25;25.30;;;13.13;;
8159;SDS011;27404;52.398;9.646;2023-05-25T05:18:51;24.80;;;14.60;;
8159;SDS011;27404;52.398;9.646;2023-05-25T05:21:16;22.97;;;13.13;;
8159;SDS011;27404;52.398;9.646;2023-05-25T05:23:42;24.50;;;15.03;;
8159;SDS011;27404;52.398;9.646;2023-05-25T05:26:07;25.27;;;14.60;;
8159;SDS011;27404;52.398;9.646;2023-05-25T05:28:35;26.50;;;15.57;;
8159;SDS011;27404;52.398;9.646;2023-05-25T05:31:01;25.37;;;16.90;;
8159;SDS011;27404;52.398;9.646;2023-05-25T05:33:26;28.57;;;15.23;;
8159;SDS011;27404;52.398;9.646;2023-05-25T05:35:52;22.83;;;13.73;;
8159;SDS011;27404;52.398;9.646;2023-05-25T05:38:18;22.90;;;13.93;;
8159;SDS011;27404;52.398;9.646;2023-05-25T05:40:44;19.90;;;12.87;;
8159;SDS011;27404;52.398;9.646;2023-05-25T05:43:10;21.40;;;13.37;;
8159;SDS011;27404;52.398;9.646;2023-05-25T05:45:36;19.47;;;11.60;;
8159;SDS011;27404;52.398;9.646;2023-05-25T05:48:02;20.83;;;10.90;;
8159;SDS011;27404;52.398;9.646;2023-05-25T05:50:33;23.63;;;12.30;;
8159;SDS011;27404;52.398;9.646;2023-05-25T05:52:59;19.90;;;11.23;;
8159;SDS011;27404;52.398;9.646;2023-05-25T05:55:25;22.07;;;10.90;;
8159;SDS011;27404;52.398;9.646;2023-05-25T05:57:50;26.40;;;12.37;;
8159;SDS011;27404;52.398;9.646;2023-05-25T06:00:16;23.17;;;11.83;;
8159;SDS011;27404;52.398;9.646;2023-05-25T06:02:42;20.97;;;12.03;;
8159;SDS011;27404;52.398;9.646;2023-05-25T06:05:07;18.27;;;11.30;;
8159;SDS011;27404;52.398;9.646;2023-05-25T06:07:33;16.10;;;10.77;;
8159;SDS011;27404;52.398;9.646;2023-05-25T06:09:59;22.43;;;10.63;;
8159;SDS011;27404;52.398;9.646;2023-05-25T06:12:25;19.97;;;10.30;;
8159;SDS011;27404;52.398;9.646;2023-05-25T06:14:50;21.00;;;9.83;;
8159;SDS011;27404;52.398;9.646;2023-05-25T06:17:17;17.83;;;11.30;;
8159;SDS011;27404;52.398;9.646;2023-05-25T06:19:42;16.77;;;9.53;;
8159;SDS011;27404;52.398;9.646;2023-05-25T06:22:08;18.00;;;9.80;;
8159;SDS011;27404;52.398;9.646;2023-05-25T06:24:34;18.87;;;10.13;;
8159;SDS011;27404;52.398;9.646;2023-05-25T06:26:59;15.40;;;10.13;;
8159;SDS011;27404;52.398;9.646;2023-05-25T06:29:27;16.37;;;9.53;;
8159;SDS011;27404;52.398;9.646;2023-05-25T06:31:52;19.50;;;9.60;;
8159;SDS011;27404;52.398;9.646;2023-05-25T06:34:18;18.77;;;10.00;;
8159;SDS011;27404;52.398;9.646;2023-05-25T06:36:43;15.33;;;9.93;;
8159;SDS011;27404;52.398;9.646;2023-05-25T06:39:08;18.90;;;9.63;;
8159;SDS011;27404;52.398;9.646;2023-05-25T06:41:35;16.30;;;9.83;;
8159;SDS011;27404;52.398;9.646;2023-05-25T06:44:02;16.53;;;9.13;;
8159;SDS011;27404;52.398;9.646;2023-05-25T06:46:28;18.43;;;9.87;;
8159;SDS011;27404;52.398;9.646;2023-05-25T06:48:53;14.57;;;8.60;;
8159;SDS011;27404;52.398;9.646;2023-05-25T06:51:19;20.97;;;10.70;;
8159;SDS011;27404;52.398;9.646;2023-05-25T06:53:45;15.80;;;9.07;;
8159;SDS011;27404;52.398;9.646;2023-05-25T06:56:10;19.53;;;9.23;;
8159;SDS011;27404;52.398;9.646;2023-05-25T06:58:36;17.40;;;8.53;;
8159;SDS011;27404;52.398;9.646;2023-05-25T07:01:01;15.03;;;8.37;;
8159;SDS011;27404;52.398;9.646;2023-05-25T07:03:27;17.47;;;8.60;;
8159;SDS011;27404;52.398;9.646;2023-05-25T07:05:52;18.23;;;9.57;;
8159;SDS011;27404;52.398;9.646;2023-05-25T07:08:18;15.07;;;8.53;;
8159;SDS011;27404;52.398;9.646;2023-05-25T07:10:43;21.17;;;9.23;;
8159;SDS011;27404;52.398;9.646;2023-05-25T07:13:09;15.57;;;9.13;;
8159;SDS011;27404;52.398;9.646;2023-05-25T07:15:35;16.23;;;8.83;;
8159;SDS011;27404;52.398;9.646;2023-05-25T07:18:00;20.13;;;9.50;;
8159;SDS011;27404;52.398;9.646;2023-05-25T07:20:26;16.63;;;8.67;;
8159;SDS011;27404;52.398;9.646;2023-05-25T07:22:51;16.53;;;8.33;;
8159;SDS011;27404;52.398;9.646;2023-05-25T07:25:17;16.10;;;8.80;;
8159;SDS011;27404;52.398;9.646;2023-05-25T07:27:46;18.03;;;8.80;;
8159;SDS011;27404;52.398;9.646;2023-05-25T07:30:12;15.83;;;8.13;;
8159;SDS011;27404;52.398;9.646;2023-05-25T07:32:38;14.37;;;8.30;;
8159;SDS011;27404;52.398;9.646;2023-05-25T07:35:05;18.53;;;8.50;;
8159;SDS011;27404;52.398;9.646;2023-05-25T07:37:30;17.73;;;8.03;;
8159;SDS011;27404;52.398;9.646;2023-05-25T07:39:56;11.07;;;6.73;;
8159;SDS011;27404;52.398;9.646;2023-05-25T07:42:21;14.23;;;8.00;;
8159;SDS011;27404;52.398;9.646;2023-05-25T07:44:47;19.63;;;8.20;;
8159;SDS011;27404;52.398;9.646;2023-05-25T07:47:13;14.90;;;7.40;;
8159;SDS011;27404;52.398;9.646;2023-05-25T07:49:38;13.37;;;8.23;;
8159;SDS011;27404;52.398;9.646;2023-05-25T07:52:04;17.47;;;7.80;;
8159;SDS011;27404;52.398;9.646;2023-05-25T07:54:30;13.77;;;7.40;;
8159;SDS011;27404;52.398;9.646;2023-05-25T07:56:56;15.87;;;6.43;;
8159;SDS011;27404;52.398;9.646;2023-05-25T07:59:21;15.50;;;6.73;;
8159;SDS011;27404;52.398;9.646;2023-05-25T08:01:47;12.20;;;6.83;;
8159;SDS011;27404;52.398;9.646;2023-05-25T08:04:12;10.27;;;6.27;;
8159;SDS011;27404;52.398;9.646;2023-05-25T08:06:38;14.40;;;7.20;;
8159;SDS011;27404;52.398;9.646;2023-05-25T08:09:04;10.90;;;5.50;;
8159;SDS011;27404;52.398;9.646;2023-05-25T08:11:30;10.03;;;6.07;;
8159;SDS011;27404;52.398;9.646;2023-05-25T08:13:56;8.00;;;4.90;;
8159;SDS011;27404;52.398;9.646;2023-05-25T08:16:21;11.77;;;6.60;;
8159;SDS011;27404;52.398;9.646;2023-05-25T08:18:47;9.00;;;4.93;;
8159;SDS011;27404;52.398;9.646;2023-05-25T08:21:12;14.07;;;6.20;;
8159;SDS011;27404;52.398;9.646;2023-05-25T08:23:39;11.40;;;5.93;;
8159;SDS011;27404;52.398;9.646;2023-05-25T08:26:09;14.23;;;5.50;;
8159;SDS011;27404;52.398;9.646;2023-05-25T08:28:35;12.83;;;5.43;;
8159;SDS011;27404;52.398;9.646;2023-05-25T08:31:01;13.70;;;6.83;;
8159;SDS011;27404;52.398;9.646;2023-05-25T08:33:28;13.30;;;5.60;;
8159;SDS011;27404;52.398;9.646;2023-05-25T08:35:54;12.87;;;5.20;;
8159;SDS011;27404;52.398;9.646;2023-05-25T08:38:19;16.50;;;5.50;;
8159;SDS011;27404;52.398;9.646;2023-05-25T08:40:49;12.53;;;5.43;;
8159;SDS011;27404;52.398;9.646;2023-05-25T08:43:30;9.40;;;4.77;;
8159;SDS011;27404;52.398;9.646;2023-05-25T08:45:57;12.63;;;5.90;;
8159;SDS011;27404;52.398;9.646;2023-05-25T08:48:28;8.07;;;4.90;;
8159;SDS011;27404;52.398;9.646;2023-05-25T08:50:57;10.30;;;5.53;;
8159;SDS011;27404;52.398;9.646;2023-05-25T08:53:26;12.03;;;5.90;;
8159;SDS011;27404;52.398;9.646;2023-05-25T08:55:54;10.77;;;5.20;;
8159;SDS011;27404;52.398;9.646;2023-05-25T08:58:22;11.13;;;5.53;;
8159;SDS011;27404;52.398;9.646;2023-05-25T09:00:56;10.80;;;5.73;;
8159;SDS011;27404;52.398;9.646;2023-05-25T09:03:25;12.67;;;5.43;;
8159;SDS011;27404;52.398;9.646;2023-05-25T09:05:53;14.70;;;5.73;;
8159;SDS011;27404;52.398;9.646;2023-05-25T09:08:20;13.57;;;5.07;;
8159;SDS011;27404;52.398;9.646;2023-05-25T09:10:46;10.87;;;5.57;;
8159;SDS011;27404;52.398;9.646;2023-05-25T09:13:12;13.30;;;5.77;;
8159;SDS011;27404;52.398;9.646;2023-05-25T09:15:38;11.13;;;5.47;;
8159;SDS011;27404;52.398;9.646;2023-05-25T09:18:03;11.67;;;5.70;;
8159;SDS011;27404;52.398;9.646;2023-05-25T09:20:29;9.50;;;5.53;;
8159;SDS011;27404;52.398;9.646;2023-05-25T09:22:57;15.77;;;6.70;;
8159;SDS011;27404;52.398;9.646;2023-05-25T09:25:27;12.30;;;5.70;;
8159;SDS011;27404;52.398;9.646;2023-05-25T09:27:54;9.83;;;4.90;;
8159;SDS011;27404;52.398;9.646;2023-05-25T09:30:22;9.57;;;5.27;;
8159;SDS011;27404;52.398;9.646;2023-05-25T09:32:48;14.83;;;5.53;;
8159;SDS011;27404;52.398;9.646;2023-05-25T09:35:15;13.60;;;4.97;;
8159;SDS011;27404;52.398;9.646;2023-05-25T09:37:41;13.23;;;4.87;;
8159;SDS011;27404;52.398;9.646;2023-05-25T09:40:08;15.20;;;5.07;;
8159;SDS011;27404;52.398;9.646;2023-05-25T09:42:37;8.43;;;4.77;;
8159;SDS011;27404;52.398;9.646;2023-05-25T09:45:03;14.30;;;4.80;;
8159;SDS011;27404;52.398;9.646;2023-05-25T09:47:30;13.20;;;5.40;;
8159;SDS011;27404;52.398;9.646;2023-05-25T09:49:56;8.83;;;4.27;;
8159;SDS011;27404;52.398;9.646;2023-05-25T09:52:22;15.13;;;5.43;;
8159;SDS011;27404;52.398;9.646;2023-05-25T09:54:49;12.83;;;5.43;;
8159;SDS011;27404;52.398;9.646;2023-05-25T09:57:15;11.50;;;5.20;;
8159;SDS011;27404;52.398;9.646;2023-05-25T09:59:42;10.17;;;6.20;;
8159;SDS011;27404;52.398;9.646;2023-05-25T10:02:09;17.03;;;5.97;;
8159;SDS011;27404;52.398;9.646;2023-05-25T10:04:35;13.00;;;5.50;;
8159;SDS011;27404;52.398;9.646;2023-05-25T10:07:00;11.10;;;5.17;;
8159;SDS011;27404;52.398;9.646;2023-05-25T10:09:27;13.47;;;4.63;;
8159;SDS011;27404;52.398;9.646;2023-05-25T10:11:55;11.13;;;5.07;;
8159;SDS011;27404;52.398;9.646;2023-05-25T10:14:22;7.17;;;4.50;;
8159;SDS011;27404;52.398;9.646;2023-05-25T10:16:53;9.50;;;4.77;;
8159;SDS011;27404;52.398;9.646;2023-05-25T10:19:21;13.43;;;5.30;;
8159;SDS011;27404;52.398;9.646;2023-05-25T10:21:52;10.47;;;4.93;;
8159;SDS011;27404;52.398;9.646;2023-05-25T10:26:58;13.20;;;5.00;;
8159;SDS011;27404;52.398;9.646;2023-05-25T10:29:27;10.27;;;4.63;;
8159;SDS011;27404;52.398;9.646;2023-05-25T10:31:55;7.30;;;4.33;;
8159;SDS011;27404;52.398;9.646;2023-05-25T10:34:23;13.63;;;4.53;;
8159;SDS011;27404;52.398;9.646;2023-05-25T10:36:50;11.20;;;4.37;;
8159;SDS011;27404;52.398;9.646;2023-05-25T10:39:15;10.50;;;4.03;;
8159;SDS011;27404;52.398;9.646;2023-05-25T10:41:44;13.67;;;4.60;;
8159;SDS011;27404;52.398;9.646;2023-05-25T10:44:11;11.03;;;4.90;;
8159;SDS011;27404;52.398;9.646;2023-05-25T10:46:37;10.40;;;4.53;;
8159;SDS011;27404;52.398;9.646;2023-05-25T10:49:03;9.50;;;4.43;;
8159;SDS011;27404;52.398;9.646;2023-05-25T10:51:38;9.70;;;4.10;;
8159;SDS011;27404;52.398;9.646;2023-05-25T10:54:04;8.67;;;3.83;;
8159;SDS011;27404;52.398;9.646;2023-05-25T10:56:30;8.47;;;3.87;;
8159;SDS011;27404;52.398;9.646;2023-05-25T10:58:55;10.50;;;4.07;;
8159;SDS011;27404;52.398;9.646;2023-05-25T11:01:21;7.53;;;3.90;;
8159;SDS011;27404;52.398;9.646;2023-05-25T11:06:21;8.27;;;3.63;;
8159;SDS011;27404;52.398;9.646;2023-05-25T11:09:04;9.37;;;3.73;;
8159;SDS011;27404;52.398;9.646;2023-05-25T11:14:20;8.87;;;3.30;;
8159;SDS011;27404;52.398;9.646;2023-05-25T11:17:11;11.63;;;3.53;;
8159;SDS011;27404;52.398;9.646;2023-05-25T11:24:49;8.10;;;3.10;;
8159;SDS011;27404;52.398;9.646;2023-05-25T11:27:43;6.77;;;3.20;;
8159;SDS011;27404;52.398;9.646;2023-05-25T11:30:09;8.60;;;3.80;;
8159;SDS011;27404;52.398;9.646;2023-05-25T11:32:35;9.13;;;5.23;;
8159;SDS011;27404;52.398;9.646;2023-05-25T11:35:03;7.67;;;3.73;;
8159;SDS011;27404;52.398;9.646;2023-05-25T11:37:33;5.80;;;3.47;;
8159;SDS011;27404;52.398;9.646;2023-05-25T11:39:58;7.63;;;3.27;;
8159;SDS011;27404;52.398;9.646;2023-05-25T11:42:24;7.40;;;3.40;;
8159;SDS011;27404;52.398;9.646;2023-05-25T11:44:50;8.30;;;3.07;;
8159;SDS011;27404;52.398;9.646;2023-05-25T11:47:16;8.50;;;3.60;;
8159;SDS011;27404;52.398;9.646;2023-05-25T11:49:47;10.10;;;3.00;;
8159;SDS011;27404;52.398;9.646;2023-05-25T11:52:14;8.63;;;3.37;;
8159;SDS011;27404;52.398;9.646;2023-05-25T11:54:41;7.83;;;3.20;;
8159;SDS011;27404;52.398;9.646;2023-05-25T11:57:13;8.37;;;2.80;;
8159;SDS011;27404;52.398;9.646;2023-05-25T11:59:45;9.67;;;3.03;;
8159;SDS011;27404;52.398;9.646;2023-05-25T12:02:24;7.63;;;2.57;;
8159;SDS011;27404;52.398;9.646;2023-05-25T12:04:53;6.37;;;2.70;;
8159;SDS011;27404;52.398;9.646;2023-05-25T12:07:19;8.00;;;3.00;;
8159;SDS011;27404;52.398;9.646;2023-05-25T12:09:45;6.07;;;2.97;;
8159;SDS011;27404;52.398;9.646;2023-05-25T12:12:10;8.33;;;2.60;;
8159;SDS011;27404;52.398;9.646;2023-05-25T12:14:49;4.70;;;2.43;;
8159;SDS011;27404;52.398;9.646;2023-05-25T12:17:15;8.90;;;3.07;;
8159;SDS011;27404;52.398;9.646;2023-05-25T12:19:42;6.67;;;2.73;;
8159;SDS011;27404;52.398;9.646;2023-05-25T12:22:10;9.87;;;3.33;;
8159;SDS011;27404;52.398;9.646;2023-05-25T12:24:37;6.07;;;2.67;;
8159;SDS011;27404;52.398;9.646;2023-05-25T12:27:03;6.57;;;2.50;;
8159;SDS011;27404;52.398;9.646;2023-05-25T12:29:47;6.10;;;2.80;;
8159;SDS011;27404;52.398;9.646;2023-05-25T12:32:13;7.27;;;2.77;;
8159;SDS011;27404;52.398;9.646;2023-05-25T12:34:39;6.90;;;3.13;;
8159;SDS011;27404;52.398;9.646;2023-05-25T12:37:04;10.37;;;3.00;;
8159;SDS011;27404;52.398;9.646;2023-05-25T12:41:56;5.97;;;2.53;;
8159;SDS011;27404;52.398;9.646;2023-05-25T12:46:54;7.00;;;2.70;;
8159;SDS011;27404;52.398;9.646;2023-05-25T12:49:27;7.00;;;3.00;;
8159;SDS011;27404;52.398;9.646;2023-05-25T12:51:54;6.60;;;2.90;;
8159;SDS011;27404;52.398;9.646;2023-05-25T12:57:09;5.33;;;2.87;;
8159;SDS011;27404;52.398;9.646;2023-05-25T12:59:37;5.37;;;2.50;;
8159;SDS011;27404;52.398;9.646;2023-05-25T13:02:05;9.50;;;2.80;;
8159;SDS011;27404;52.398;9.646;2023-05-25T13:04:32;6.87;;;3.03;;
8159;SDS011;27404;52.398;9.646;2023-05-25T13:06:58;5.53;;;2.50;;
8159;SDS011;27404;52.398;9.646;2023-05-25T13:09:24;8.67;;;2.50;;
8159;SDS011;27404;52.398;9.646;2023-05-25T13:11:51;8.53;;;2.80;;
8159;SDS011;27404;52.398;9.646;2023-05-25T13:14:18;8.73;;;3.27;;
8159;SDS011;27404;52.398;9.646;2023-05-25T13:16:44;6.47;;;2.83;;
8159;SDS011;27404;52.398;9.646;2023-05-25T13:19:10;5.80;;;2.90;;
8159;SDS011;27404;52.398;9.646;2023-05-25T13:21:35;9.73;;;3.17;;
8159;SDS011;27404;52.398;9.646;2023-05-25T13:24:01;5.90;;;2.93;;
8159;SDS011;27404;52.398;9.646;2023-05-25T13:26:26;6.07;;;2.80;;
8159;SDS011;27404;52.398;9.646;2023-05-25T13:28:51;7.90;;;3.30;;
8159;SDS011;27404;52.398;9.646;2023-05-25T13:31:17;8.03;;;3.33;;
8159;SDS011;27404;52.398;9.646;2023-05-25T13:33:42;8.73;;;3.00;;
8159;SDS011;27404;52.398;9.646;2023-05-25T13:36:08;11.37;;;3.20;;
8159;SDS011;27404;52.398;9.646;2023-05-25T13:38:33;7.27;;;2.97;;
8159;SDS011;27404;52.398;9.646;2023-05-25T13:41:00;7.73;;;2.83;;
8159;SDS011;27404;52.398;9.646;2023-05-25T13:43:26;7.63;;;2.90;;
8159;SDS011;27404;52.398;9.646;2023-05-25T13:45:51;10.30;;;3.20;;
8159;SDS011;27404;52.398;9.646;2023-05-25T13:48:17;10.63;;;2.93;;
8159;SDS011;27404;52.398;9.646;2023-05-25T13:50:43;8.33;;;3.40;;
8159;SDS011;27404;52.398;9.646;2023-05-25T13:53:12;10.17;;;3.20;;
8159;SDS011;27404;52.398;9.646;2023-05-25T13:55:37;9.10;;;4.10;;
8159;SDS011;27404;52.398;9.646;2023-05-25T13:58:04;10.67;;;3.37;;
8159;SDS011;27404;52.398;9.646;2023-05-25T14:00:30;13.17;;;3.93;;
8159;SDS011;27404;52.398;9.646;2023-05-25T14:02:56;9.87;;;3.33;;
8159;SDS011;27404;52.398;9.646;2023-05-25T14:05:22;8.93;;;3.90;;
8159;SDS011;27404;52.398;9.646;2023-05-25T14:07:47;13.67;;;3.57;;
8159;SDS011;27404;52.398;9.646;2023-05-25T14:10:13;7.37;;;2.60;;
8159;SDS011;27404;52.398;9.646;2023-05-25T14:12:39;8.23;;;2.90;;
8159;SDS011;27404;52.398;9.646;2023-05-25T14:15:05;9.77;;;3.03;;
8159;SDS011;27404;52.398;9.646;2023-05-25T14:17:31;7.93;;;3.30;;
8159;SDS011;27404;52.398;9.646;2023-05-25T14:19:57;9.47;;;3.40;;
8159;SDS011;27404;52.398;9.646;2023-05-25T14:22:23;12.90;;;4.00;;
8159;SDS011;27404;52.398;9.646;2023-05-25T14:24:49;10.07;;;3.27;;
8159;SDS011;27404;52.398;9.646;2023-05-25T14:27:15;9.20;;;3.67;;
8159;SDS011;27404;52.398;9.646;2023-05-25T14:29:45;9.33;;;3.20;;
8159;SDS011;27404;52.398;9.646;2023-05-25T14:32:17;11.50;;;3.30;;
8159;SDS011;27404;52.398;9.646;2023-05-25T14:34:43;12.07;;;3.93;;
8159;SDS011;27404;52.398;9.646;2023-05-25T14:37:09;9.53;;;3.43;;
8159;SDS011;27404;52.398;9.646;2023-05-25T14:39:36;7.67;;;3.67;;
8159;SDS011;27404;52.398;9.646;2023-05-25T14:42:02;13.27;;;3.90;;
8159;SDS011;27404;52.398;9.646;2023-05-25T14:44:28;10.97;;;3.70;;
8159;SDS011;27404;52.398;9.646;2023-05-25T14:46:54;12.27;;;3.40;;
8159;SDS011;27404;52.398;9.646;2023-05-25T14:49:19;9.23;;;3.30;;
8159;SDS011;27404;52.398;9.646;2023-05-25T14:51:49;9.10;;;3.17;;
8159;SDS011;27404;52.398;9.646;2023-05-25T14:54:15;10.97;;;3.53;;
8159;SDS011;27404;52.398;9.646;2023-05-25T14:56:40;11.63;;;3.00;;
8159;SDS011;27404;52.398;9.646;2023-05-25T14:59:06;9.70;;;3.83;;
8159;SDS011;27404;52.398;9.646;2023-05-25T15:01:31;9.60;;;3.63;;
8159;SDS011;27404;52.398;9.646;2023-05-25T15:03:57;8.17;;;3.23;;
8159;SDS011;27404;52.398;9.646;2023-05-25T15:06:22;12.43;;;3.83;;
8159;SDS011;27404;52.398;9.646;2023-05-25T15:08:48;14.00;;;3.33;;
8159;SDS011;27404;52.398;9.646;2023-05-25T15:11:13;10.40;;;3.60;;